Time;durP1;ratioP1;P1;durP2;ratioP2;P2;SDS_P1;SDS_P2;PMS_P1;PMS_P2;Temp;Humidity;BMP_temperature;BMP_pressure;BME280_temperature;BME280_humidity;BME280_pressure;Samples;Min_cycle;Max_cycle;Signal;HPM_P1;HPM_P2
2023/09/08 00:02:18;;;;;;;13.90;10.95;;;;;;;19.87;99.33;65070.06;5052146;28;20248;-50
2023/09/08 00:04:44;;;;;;;11.60;9.95;;;;;;;19.87;97.40;65067.50;5051886;28;20197;-51
2023/09/08 00:07:09;;;;;;;13.07;11.18;;;;;;;19.87;98.40;65070.06;5051853;28;20696;-51
2023/09/08 00:09:34;;;;;;;13.40;11.20;;;;;;;19.89;98.45;65072.25;5051684;28;20617;-51
2023/09/08 00:12:01;;;;;;;12.52;9.85;;;;;;;19.72;100.00;65053.47;5052149;28;20218;-50
2023/09/08 00:14:26;;;;;;;14.43;9.63;;;;;;;19.68;99.69;65048.50;5033833;28;20233;-51
2023/09/08 00:16:56;;;;;;;13.45;7.90;;;;;;;19.63;98.25;65040.44;5033812;28;20653;-51
2023/09/08 00:19:22;;;;;;;9.93;7.72;;;;;;;19.49;97.12;65028.09;5033826;28;20277;-57
2023/09/08 00:21:49;;;;;;;9.65;6.93;;;;;;;19.41;96.51;65016.16;5033805;28;20213;-50
2023/09/08 00:24:14;;;;;;;10.38;7.45;;;;;;;19.32;98.46;65006.72;5051576;28;20212;-50
2023/09/08 00:26:40;;;;;;;8.52;6.68;;;;;;;19.29;97.86;65005.97;5033598;28;20225;-50
2023/09/08 00:29:07;;;;;;;7.72;6.30;;;;;;;19.26;95.62;65000.13;5051624;28;20219;-54
2023/09/08 00:31:33;;;;;;;8.52;6.45;;;;;;;19.30;96.83;65004.53;5051547;28;20228;-51
2023/09/08 00:33:58;;;;;;;6.47;5.85;;;;;;;19.26;95.50;65002.66;5051553;28;20691;-51
2023/09/08 00:36:24;;;;;;;7.68;6.00;;;;;;;19.25;95.38;65001.56;5051617;28;20233;-53
2023/09/08 00:38:50;;;;;;;9.15;5.18;;;;;;;19.19;93.98;64997.50;5051424;28;20198;-50
2023/09/08 00:41:15;;;;;;;7.15;5.82;;;;;;;19.23;94.18;64997.34;5051407;28;20213;-51
2023/09/08 00:43:41;;;;;;;6.63;4.95;;;;;;;19.16;93.04;64992.19;5051300;28;20246;-51
2023/09/08 00:46:07;;;;;;;7.38;4.90;;;;;;;19.11;93.09;64984.09;5051121;28;20688;-51
2023/09/08 00:48:34;;;;;;;9.63;4.80;;;;;;;19.11;92.43;64986.09;5051249;28;20652;-50
2023/09/08 00:51:01;;;;;;;6.80;5.07;;;;;;;19.10;91.26;64985.00;5050863;28;20237;-50
2023/09/08 00:53:27;;;;;;;5.57;4.25;;;;;;;19.09;90.83;64981.91;5033336;28;20201;-50
2023/09/08 00:55:54;;;;;;;11.05;4.50;;;;;;;19.07;91.08;64984.25;5051045;28;20288;-54
2023/09/08 00:58:19;;;;;;;9.20;4.75;;;;;;;19.13;90.89;64988.88;5051355;28;20215;-51
2023/09/08 01:00:44;;;;;;;4.32;3.92;;;;;;;19.13;91.18;64988.88;5051270;28;20652;-52
2023/09/08 01:03:11;;;;;;;6.90;4.68;;;;;;;19.11;91.06;64983.53;5050972;28;20212;-51
2023/09/08 01:05:37;;;;;;;8.27;4.40;;;;;;;19.07;91.02;64984.25;5051183;28;20221;-51
2023/09/08 01:08:03;;;;;;;6.22;4.72;;;;;;;19.14;90.68;64989.41;5050946;28;20291;-51
2023/09/08 01:10:29;;;;;;;7.03;4.30;;;;;;;19.11;91.82;64988.66;5051002;28;20205;-50
2023/09/08 01:12:54;;;;;;;7.35;4.60;;;;;;;19.01;93.51;64972.50;5032959;28;20213;-50
2023/09/08 01:15:20;;;;;;;5.90;4.03;;;;;;;19.05;93.65;64980.03;5050618;28;20285;-50
2023/09/08 01:17:45;;;;;;;7.55;4.80;;;;;;;19.15;93.69;64991.06;5050772;28;20566;-50
2023/09/08 01:20:58;;;;;;;4.80;3.58;;;;;;;19.09;92.27;64983.91;5051292;28;20207;-49
2023/09/08 01:23:53;;;;;;;6.45;4.32;;;;;;;19.19;93.15;64998.03;5014915;28;20268;-50
2023/09/08 01:26:24;;;;;;;6.25;4.28;;;;;;;19.32;94.04;65009.28;5050714;28;20228;-52
2023/09/08 01:28:50;;;;;;;5.13;4.18;;;;;;;19.26;94.82;65000.13;5050802;28;20759;-54
2023/09/08 01:31:17;;;;;;;9.35;4.90;;;;;;;19.15;95.95;64991.06;5050924;28;20202;-52
2023/09/08 01:33:45;;;;;;;5.63;4.45;;;;;;;19.14;97.58;64987.44;5050825;28;20304;-51
2023/09/08 01:36:11;;;;;;;7.97;4.78;;;;;;;19.14;95.78;64989.41;5032656;28;20217;-51
2023/09/08 01:38:37;;;;;;;11.02;4.82;;;;;;;19.28;96.51;65005.44;5050918;28;20212;-51
2023/09/08 01:41:02;;;;;;;7.45;5.20;;;;;;;19.21;96.68;64997.69;5050569;28;20744;-51
2023/09/08 01:43:28;;;;;;;7.57;4.88;;;;;;;19.12;97.67;64984.66;5050546;28;20198;-51
2023/09/08 01:45:53;;;;;;;5.35;4.80;;;;;;;19.20;99.61;64993.50;5050361;28;20559;-50
2023/09/08 01:48:19;;;;;;;7.32;4.78;;;;;;;19.21;98.48;64994.59;5050603;28;20675;-50
2023/09/08 01:50:44;;;;;;;6.82;4.70;;;;;;;19.21;98.08;64995.13;5050551;28;20228;-51
2023/09/08 01:53:10;;;;;;;7.72;5.57;;;;;;;19.18;97.22;64996.41;5050234;28;20637;-51
2023/09/08 01:55:35;;;;;;;5.22;4.72;;;;;;;19.03;98.75;64974.72;5032725;28;20194;-51
2023/09/08 01:58:01;;;;;;;6.15;4.88;;;;;;;19.03;99.92;64977.28;5050343;28;20639;-51
2023/09/08 02:00:26;;;;;;;7.28;4.97;;;;;;;19.04;100.00;64978.38;5050088;28;20213;-50
2023/09/08 02:02:52;;;;;;;8.43;5.53;;;;;;;18.98;100.00;64969.22;5049406;28;20613;-54
2023/09/08 02:05:17;;;;;;;6.55;4.90;;;;;;;18.94;100.00;64967.34;5049826;28;20197;-50
2023/09/08 02:07:42;;;;;;;7.55;5.13;;;;;;;18.98;100.00;64969.22;5050064;28;20216;-50
2023/09/08 02:10:10;;;;;;;8.45;5.25;;;;;;;18.97;100.00;64970.66;5050169;28;20193;-54
2023/09/08 02:12:35;;;;;;;9.02;5.30;;;;;;;18.98;100.00;64969.75;5050218;28;20213;-50
2023/09/08 02:15:01;;;;;;;5.68;4.57;;;;;;;19.06;100.00;64981.16;5050122;28;20355;-50
2023/09/08 02:17:26;;;;;;;5.63;5.00;;;;;;;18.97;100.00;64973.75;5048846;28;20225;-50
2023/09/08 02:19:51;;;;;;;7.53;5.20;;;;;;;18.86;100.00;64958.53;5049953;28;20193;-50
2023/09/08 02:22:18;;;;;;;6.57;5.28;;;;;;;18.79;100.00;64951.34;5049719;28;20688;-50
2023/09/08 02:24:43;;;;;;;7.45;5.53;;;;;;;18.81;100.00;64955.56;5049869;28;20208;-50
2023/09/08 02:27:09;;;;;;;8.18;5.47;;;;;;;18.73;100.00;64947.28;5050266;28;20206;-51
2023/09/08 02:29:41;;;;;;;11.60;6.00;;;;;;;18.80;100.00;64954.47;5050008;28;20197;-51
2023/09/08 02:32:06;;;;;;;7.25;5.50;;;;;;;18.76;100.00;64947.50;5049648;28;20278;-50
2023/09/08 02:34:36;;;;;;;6.35;5.32;;;;;;;18.78;100.00;64952.81;5050038;28;20198;-50
2023/09/08 02:37:02;;;;;;;8.35;5.40;;;;;;;18.76;100.00;64948.03;5032319;28;20294;-51
2023/09/08 02:39:28;;;;;;;8.65;6.20;;;;;;;18.63;100.00;64930.59;5050029;28;20684;-51
2023/09/08 02:41:54;;;;;;;7.30;5.75;;;;;;;18.59;100.00;64931.28;5049633;28;20592;-49
2023/09/08 02:44:21;;;;;;;6.55;5.05;;;;;;;18.67;100.00;64938.09;5049830;28;20259;-51
2023/09/08 02:46:48;;;;;;;8.50;5.72;;;;;;;18.75;100.00;64946.38;5049801;28;20219;-50
2023/09/08 02:49:13;;;;;;;6.97;5.82;;;;;;;18.69;100.00;64937.75;5049814;28;20232;-50
2023/09/08 02:51:39;;;;;;;7.93;5.75;;;;;;;18.73;100.00;64942.19;5050091;28;20214;-50
2023/09/08 02:54:04;;;;;;;8.38;5.90;;;;;;;18.68;100.00;64938.66;5049596;28;20308;-57
2023/09/08 02:56:30;;;;;;;8.38;5.28;;;;;;;18.59;100.00;64928.72;5031926;28;20213;-50
2023/09/08 02:58:55;;;;;;;7.55;5.72;;;;;;;18.71;100.00;64939.41;5048566;28;20586;-51
2023/09/08 03:01:21;;;;;;;10.68;6.00;;;;;;;18.75;100.00;64944.38;5049431;28;20297;-50
2023/09/08 03:03:47;;;;;;;8.20;6.20;;;;;;;18.67;100.00;64935.56;5049735;28;20262;-51
2023/09/08 03:06:18;;;;;;;11.13;5.82;;;;;;;18.66;100.00;64939.56;5049369;28;20275;-50
2023/09/08 03:08:43;;;;;;;9.38;6.45;;;;;;;18.65;100.00;64935.34;5049526;28;20285;-51
2023/09/08 03:11:09;;;;;;;9.32;6.30;;;;;;;18.62;100.00;64930.03;5049521;28;20221;-51
2023/09/08 03:13:35;;;;;;;7.05;5.57;;;;;;;18.54;100.00;64923.22;5049301;28;20639;-51
2023/09/08 03:16:08;;;;;;;10.93;6.68;;;;;;;18.44;100.00;64915.84;5052301;28;20248;-54
2023/09/08 03:18:36;;;;;;;6.97;6.00;;;;;;;18.30;100.00;64900.38;5052838;28;20201;-50
2023/09/08 03:21:08;;;;;;;10.48;6.05;;;;;;;18.13;100.00;64878.53;5052910;28;20212;-49
2023/09/08 03:23:38;;;;;;;7.85;6.78;;;;;;;18.15;100.00;64878.19;5052720;28;20227;-51
2023/09/08 03:26:04;;;;;;;9.45;7.20;;;;;;;18.09;100.00;64876.66;5052604;28;20186;-51
2023/09/08 03:28:31;;;;;;;13.18;7.03;;;;;;;18.03;100.00;64868.06;5052775;28;20256;-52
2023/09/08 03:30:56;;;;;;;11.00;8.15;;;;;;;18.12;100.00;64877.97;5052391;28;20241;-50
2023/09/08 03:33:22;;;;;;;8.50;6.82;;;;;;;18.09;100.00;64871.56;5052440;28;20228;-50
2023/09/08 03:35:47;;;;;;;7.35;6.60;;;;;;;18.02;100.00;64866.94;5052651;28;20212;-50
2023/09/08 03:38:12;;;;;;;7.68;6.40;;;;;;;18.04;100.00;64866.06;5052389;28;20708;-50
2023/09/08 03:40:38;;;;;;;8.80;6.35;;;;;;;17.99;100.00;64863.66;5034583;28;20206;-51
2023/09/08 03:43:04;;;;;;;9.05;6.63;;;;;;;17.97;100.00;64861.44;5052140;28;20208;-50
2023/09/08 03:45:30;;;;;;;11.45;6.85;;;;;;;18.08;100.00;64871.00;5052341;28;20217;-51
2023/09/08 03:47:55;;;;;;;13.35;9.10;;;;;;;18.01;100.00;64867.84;5052111;28;20201;-50
2023/09/08 03:50:21;;;;;;;8.27;7.03;;;;;;;18.01;100.00;64865.84;5052311;28;20743;-51
2023/09/08 03:52:47;;;;;;;8.57;6.75;;;;;;;18.15;100.00;64881.28;5051994;28;20319;-50
2023/09/08 03:55:12;;;;;;;9.27;7.28;;;;;;;17.98;100.00;64859.44;5051893;28;20209;-50
2023/09/08 03:57:38;;;;;;;18.02;9.98;;;;;;;17.97;100.00;64858.91;5052259;28;20630;-51
2023/09/08 04:00:06;;;;;;;7.72;6.82;;;;;;;17.88;100.00;64854.06;5052298;28;20251;-50
2023/09/08 04:02:31;;;;;;;13.98;7.18;;;;;;;17.85;100.00;64845.66;5051771;28;20313;-55
2023/09/08 04:04:57;;;;;;;12.35;7.50;;;;;;;17.73;100.00;64835.00;5052162;28;20280;-50
2023/09/08 04:07:23;;;;;;;13.63;7.82;;;;;;;17.77;100.00;64841.94;5052193;28;20553;-51
2023/09/08 04:09:49;;;;;;;9.68;6.68;;;;;;;17.70;100.00;64831.66;5034040;28;20210;-56
2023/09/08 04:12:15;;;;;;;15.02;9.07;;;;;;;17.71;100.00;64832.78;5051863;28;20224;-51
2023/09/08 04:14:41;;;;;;;14.30;10.57;;;;;;;17.71;100.00;64835.34;5051958;28;20251;-55
2023/09/08 04:17:06;;;;;;;11.93;7.05;;;;;;;17.80;100.00;64842.69;5051519;28;20241;-54
2023/09/08 04:19:32;;;;;;;13.88;8.43;;;;;;;17.78;100.00;64837.38;5033831;28;20223;-50
2023/09/08 04:21:58;;;;;;;13.07;8.18;;;;;;;17.78;100.00;64837.94;5051924;28;20680;-51
2023/09/08 04:24:24;;;;;;;12.82;8.88;;;;;;;17.72;100.00;64836.41;5051742;28;20647;-51
2023/09/08 04:26:50;;;;;;;13.18;7.45;;;;;;;17.70;100.00;64829.13;5032520;28;20248;-50
2023/09/08 04:29:15;;;;;;;12.45;7.35;;;;;;;17.62;100.00;64825.41;5051719;28;20277;-51
2023/09/08 04:31:41;;;;;;;12.15;7.38;;;;;;;17.51;100.00;64813.28;5051472;28;20217;-50
2023/09/08 04:34:06;;;;;;;9.45;6.90;;;;;;;17.54;100.00;64814.03;5051777;28;20209;-50
2023/09/08 04:36:32;;;;;;;9.50;6.75;;;;;;;17.45;100.00;64807.19;5051523;28;20650;-54
2023/09/08 04:38:57;;;;;;;10.27;6.60;;;;;;;17.52;100.00;64812.38;5050251;28;20224;-56
2023/09/08 04:41:23;;;;;;;8.50;6.50;;;;;;;17.53;100.00;64815.50;5051656;28;20217;-51
2023/09/08 04:43:49;;;;;;;15.07;7.38;;;;;;;17.52;100.00;64812.38;5033454;28;20202;-50
2023/09/08 04:46:15;;;;;;;7.75;6.10;;;;;;;17.49;100.00;64809.06;5033446;28;20319;-51
2023/09/08 04:48:40;;;;;;;12.15;6.63;;;;;;;17.48;100.00;64807.41;5051474;28;20652;-51
2023/09/08 04:51:05;;;;;;;8.68;6.47;;;;;;;17.52;100.00;64814.38;5051616;28;20212;-51
2023/09/08 04:53:32;;;;;;;13.25;6.55;;;;;;;17.65;100.00;64828.72;5051146;28;20213;-51
2023/09/08 04:55:59;;;;;;;9.27;6.80;;;;;;;17.84;100.00;64844.00;5050839;28;20205;-57
2023/09/08 04:58:25;;;;;;;12.40;6.80;;;;;;;17.91;100.00;64851.72;5051090;28;20197;-51
2023/09/08 05:00:51;;;;;;;10.88;6.45;;;;;;;17.89;100.00;64852.06;5051101;28;20197;-50
2023/09/08 05:03:16;;;;;;;13.10;7.20;;;;;;;17.81;100.00;64843.25;5033281;28;20208;-51
2023/09/08 05:05:42;;;;;;;10.10;5.90;;;;;;;17.85;100.00;64848.22;5051163;28;20206;-51
2023/09/08 05:08:07;;;;;;;10.52;6.25;;;;;;;17.86;100.00;64849.31;5076048;22;20305;-52
2023/09/08 05:10:33;;;;;;;12.18;6.72;;;;;;;17.85;100.00;64850.75;5071445;28;20205;-51
2023/09/08 05:12:58;;;;;;;12.88;6.10;;;;;;;17.82;100.00;64844.91;5053022;28;20342;-52
2023/09/08 05:15:25;;;;;;;10.57;7.47;;;;;;;17.92;100.00;64855.38;5050782;28;20212;-51
2023/09/08 05:17:50;;;;;;;9.77;5.65;;;;;;;17.93;100.00;64859.03;5050941;28;20217;-58
2023/09/08 05:20:16;;;;;;;10.43;6.07;;;;;;;18.08;100.00;64873.03;5050997;28;20635;-51
2023/09/08 05:22:42;;;;;;;10.00;6.05;;;;;;;18.17;100.00;64882.94;5050902;28;20228;-53
2023/09/08 05:25:07;;;;;;;8.02;5.90;;;;;;;18.15;100.00;64883.84;5032014;28;20284;-51
2023/09/08 05:27:33;;;;;;;14.95;5.78;;;;;;;18.25;100.00;64891.75;5049595;28;20288;-53
2023/09/08 05:29:58;;;;;;;7.03;5.25;;;;;;;18.26;100.00;64895.97;5050712;28;20205;-52
2023/09/08 05:32:24;;;;;;;13.57;4.68;;;;;;;18.29;100.00;64896.72;5049100;28;20733;-51
2023/09/08 05:34:50;;;;;;;7.07;5.28;;;;;;;18.37;100.00;64908.09;5032737;28;20209;-51
2023/09/08 05:37:15;;;;;;;13.63;6.30;;;;;;;18.40;100.00;64910.88;5032513;28;20216;-51
2023/09/08 05:39:41;;;;;;;9.75;5.95;;;;;;;18.54;100.00;64926.34;5050776;28;20664;-51
2023/09/08 05:42:09;;;;;;;7.00;5.22;;;;;;;18.56;100.00;64927.97;5051297;28;20220;-52
2023/09/08 05:44:35;;;;;;;7.97;4.85;;;;;;;18.71;100.00;64945.06;5050628;28;20246;-51
2023/09/08 05:47:00;;;;;;;8.60;5.43;;;;;;;18.71;100.00;64939.41;5050643;28;20288;-52
2023/09/08 05:49:26;;;;;;;8.23;5.03;;;;;;;18.69;100.00;64942.88;5032811;28;20690;-51
2023/09/08 05:51:54;;;;;;;9.98;5.53;;;;;;;18.87;100.00;64959.63;5049215;28;20228;-52
2023/09/08 05:54:20;;;;;;;9.25;5.43;;;;;;;18.88;100.00;64960.72;5050559;28;20221;-50
2023/09/08 05:56:45;;;;;;;9.45;5.00;;;;;;;19.07;100.00;64979.69;5049471;28;20205;-52
2023/09/08 05:59:10;;;;;;;8.60;5.43;;;;;;;19.20;100.00;64996.03;5050237;28;20683;-57
2023/09/08 06:01:36;;;;;;;6.75;5.32;;;;;;;19.25;98.99;64999.56;5049846;28;20213;-52
2023/09/08 06:04:02;;;;;;;9.40;5.15;;;;;;;19.20;99.87;64998.59;5049900;28;20725;-51
2023/09/08 06:06:29;;;;;;;10.77;5.72;;;;;;;19.36;100.00;65013.72;5050836;28;20218;-51
2023/09/08 06:08:55;;;;;;;7.13;4.93;;;;;;;19.49;96.84;65028.09;5050376;28;20340;-51
2023/09/08 06:11:20;;;;;;;9.00;5.20;;;;;;;19.41;97.96;65018.69;5032323;28;20758;-50
2023/09/08 06:13:47;;;;;;;6.13;5.38;;;;;;;19.53;93.68;65031.94;5032379;28;20380;-51
2023/09/08 06:16:12;;;;;;;8.85;5.10;;;;;;;19.70;91.75;65051.28;5050370;28;20205;-52
2023/09/08 06:18:43;;;;;;;9.48;4.53;;;;;;;19.64;87.19;65044.09;5050204;28;20231;-51
2023/09/08 06:21:09;;;;;;;8.30;5.00;;;;;;;19.91;87.83;65074.47;5032391;28;20304;-50
2023/09/08 06:23:36;;;;;;;9.18;5.22;;;;;;;20.00;86.05;65086.41;5050094;28;20280;-51
2023/09/08 06:26:02;;;;;;;6.28;4.20;;;;;;;19.95;91.72;65075.78;5050329;28;20228;-51
2023/09/08 06:28:28;;;;;;;6.82;4.95;;;;;;;19.90;87.41;65070.78;5049883;28;20213;-50
2023/09/08 06:30:54;;;;;;;5.63;3.72;;;;;;;20.11;80.99;65096.00;5050210;28;20209;-52
2023/09/08 06:33:22;;;;;;;4.57;4.00;;;;;;;20.23;81.72;65108.72;5032055;28;20282;-50
2023/09/08 06:35:48;;;;;;;4.85;3.60;;;;;;;20.28;77.27;65114.78;5049981;28;20232;-51
2023/09/08 06:38:13;;;;;;;11.18;3.95;;;;;;;20.47;75.51;65135.25;5049848;28;20235;-51
2023/09/08 06:40:39;;;;;;;11.38;4.25;;;;;;;20.47;78.05;65132.69;5050177;28;20576;-51
2023/09/08 06:43:05;;;;;;;5.35;3.38;;;;;;;20.44;75.75;65132.47;5049679;28;20374;-51
2023/09/08 06:45:30;;;;;;;9.50;4.00;;;;;;;20.62;73.97;65149.28;5049749;28;20195;-50
2023/09/08 06:47:56;;;;;;;6.78;3.70;;;;;;;20.68;75.03;65155.91;5031862;28;20221;-52
2023/09/08 06:50:22;;;;;;;7.85;3.63;;;;;;;20.75;71.58;65166.19;5033973;28;20201;-51
2023/09/08 06:52:50;;;;;;;6.60;3.25;;;;;;;20.86;71.42;65178.34;5053139;28;20688;-50
2023/09/08 06:55:17;;;;;;;10.40;5.20;;;;;;;20.98;70.95;65191.63;5053329;28;20198;-50
2023/09/08 06:57:43;;;;;;;4.65;3.50;;;;;;;21.17;70.01;65212.66;5053505;28;20274;-51
2023/09/08 07:00:11;;;;;;;7.50;3.67;;;;;;;21.23;68.55;65214.16;5053161;28;20205;-51
2023/09/08 07:02:37;;;;;;;11.93;7.85;;;;;;;21.29;67.43;65225.91;5053078;28;20209;-51
2023/09/08 07:05:08;;;;;;;4.85;3.28;;;;;;;21.38;66.99;65233.31;5053289;28;20220;-53
2023/09/08 07:07:37;;;;;;;4.40;3.50;;;;;;;21.44;67.43;65236.81;5053034;28;20637;-50
2023/09/08 07:10:05;;;;;;;5.03;3.65;;;;;;;21.61;66.43;65256.19;5053234;28;20684;-51
2023/09/08 07:12:31;;;;;;;7.07;3.30;;;;;;;21.75;66.23;65271.66;5052852;28;20217;-52
2023/09/08 07:14:57;;;;;;;6.72;4.35;;;;;;;21.92;67.09;65291.97;5035320;28;20699;-52
2023/09/08 07:17:25;;;;;;;6.10;3.42;;;;;;;22.06;66.53;65304.91;5053489;28;20209;-51
2023/09/08 07:19:51;;;;;;;5.07;3.13;;;;;;;22.17;64.69;65319.63;5052885;28;20233;-51
2023/09/08 07:22:18;;;;;;;4.50;3.25;;;;;;;22.31;63.57;65335.69;5053353;28;20247;-51
2023/09/08 07:24:45;;;;;;;8.50;3.53;;;;;;;22.38;64.32;65342.88;5053157;28;20200;-56
2023/09/08 07:27:14;;;;;;;9.48;4.88;;;;;;;22.44;65.14;65349.53;5053066;28;20295;-51
2023/09/08 07:29:40;;;;;;;5.50;3.15;;;;;;;22.70;61.92;65380.91;5052997;28;20647;-51
2023/09/08 07:32:07;;;;;;;3.63;3.15;;;;;;;22.94;60.16;65404.91;5053040;28;20217;-50
2023/09/08 07:34:32;;;;;;;8.38;3.40;;;;;;;22.95;61.26;65406.00;5052743;28;20225;-51
2023/09/08 07:36:57;;;;;;;6.55;4.10;;;;;;;22.82;58.84;65391.63;5053214;28;20570;-52
2023/09/08 07:39:24;;;;;;;4.18;3.47;;;;;;;22.98;59.03;65409.34;5052567;28;20255;-51
2023/09/08 07:41:49;;;;;;;3.95;3.30;;;;;;;22.99;59.16;65409.88;5052983;28;20296;-51
2023/09/08 07:44:15;;;;;;;7.25;3.47;;;;;;;23.08;58.44;65420.41;5052657;28;20373;-55
2023/09/08 07:46:40;;;;;;;6.82;3.67;;;;;;;23.17;58.80;65429.81;5052663;28;20789;-52
2023/09/08 07:49:06;;;;;;;5.07;3.58;;;;;;;23.43;59.80;65460.69;5034882;28;20208;-50
2023/09/08 07:51:31;;;;;;;4.97;3.85;;;;;;;23.50;58.66;65465.84;5052400;28;20220;-51
2023/09/08 07:53:57;;;;;;;5.88;4.13;;;;;;;23.70;58.37;65488.00;5052254;28;20270;-49
2023/09/08 07:56:25;;;;;;;8.10;3.90;;;;;;;23.87;57.63;65504.84;5052553;28;20239;-51
2023/09/08 07:58:50;;;;;;;6.63;3.47;;;;;;;23.95;56.50;65515.72;5052266;28;20212;-52
2023/09/08 08:01:16;;;;;;;6.68;3.60;;;;;;;24.11;54.71;65530.91;5051145;28;20206;-50
2023/09/08 08:03:42;;;;;;;4.82;2.92;;;;;;;24.12;55.57;65532.00;5034622;28;20236;-52
2023/09/08 08:06:07;;;;;;;3.15;2.83;;;;;;;24.28;51.47;65551.78;5052124;28;20201;-51
2023/09/08 08:08:38;;;;;;;4.05;3.03;;;;;;;24.28;50.93;65552.31;5052227;28;20197;-51
2023/09/08 08:11:10;;;;;;;3.65;3.05;;;;;;;24.35;49.90;65560.09;5052328;28;20236;-51
2023/09/08 08:13:36;;;;;;;3.30;2.70;;;;;;;24.31;50.88;65555.09;5052048;28;20592;-51
2023/09/08 08:16:01;;;;;;;2.97;2.20;;;;;;;23.95;50.84;65513.16;5052215;28;20209;-51
2023/09/08 08:18:27;;;;;;;7.38;3.33;;;;;;;23.82;52.31;65501.88;5051909;28;20201;-51
2023/09/08 08:20:52;;;;;;;3.97;3.10;;;;;;;24.22;52.42;65545.69;5052300;28;20207;-51
2023/09/08 08:23:18;;;;;;;4.85;3.00;;;;;;;24.13;51.20;65536.25;5052169;28;20733;-50
2023/09/08 08:25:43;;;;;;;3.63;2.97;;;;;;;24.20;50.84;65540.34;5052057;28;20210;-51
2023/09/08 08:28:09;;;;;;;6.00;3.05;;;;;;;24.00;52.37;65521.81;5051900;28;20721;-51
2023/09/08 08:30:35;;;;;;;6.20;3.38;;;;;;;24.58;51.54;65585.06;5034162;28;20259;-52
2023/09/08 08:33:01;;;;;;;5.10;2.47;;;;;;;24.47;48.41;65573.41;5051773;28;20229;-50
2023/09/08 08:35:27;;;;;;;4.55;2.85;;;;;;;24.65;49.17;65592.81;5051863;28;20566;-52
2023/09/08 08:37:52;;;;;;;5.75;2.92;;;;;;;24.97;47.72;65626.31;5051739;28;20267;-50
2023/09/08 08:40:18;;;;;;;3.65;3.22;;;;;;;25.14;47.17;65646.66;5051862;28;20181;-50
2023/09/08 08:42:44;;;;;;;8.05;2.97;;;;;;;25.17;46.51;65647.94;5051642;28;20300;-54
2023/09/08 08:45:11;;;;;;;5.82;3.67;;;;;;;25.20;45.82;65653.31;5051592;28;20612;-51
2023/09/08 08:47:37;;;;;;;4.95;3.25;;;;;;;25.21;44.97;65651.84;5051449;28;20205;-54
2023/09/08 08:50:04;;;;;;;3.97;3.10;;;;;;;25.50;46.37;65686.63;5051547;28;20205;-51
2023/09/08 08:52:29;;;;;;;7.28;3.05;;;;;;;25.32;44.02;65661.47;5051688;28;20225;-51
2023/09/08 08:54:56;;;;;;;3.72;3.22;;;;;;;25.33;44.87;65665.16;5051497;28;20200;-51
2023/09/08 08:57:22;;;;;;;2.95;2.53;;;;;;;25.29;46.35;65661.25;5033596;28;20224;-52
2023/09/08 08:59:51;;;;;;;3.75;3.35;;;;;;;25.54;45.45;65688.47;5051754;28;20194;-52
2023/09/08 09:02:18;;;;;;;6.88;3.63;;;;;;;25.68;43.38;65706.59;5051395;28;20221;-50
2023/09/08 09:04:45;;;;;;;3.67;3.00;;;;;;;25.78;42.97;65718.25;5051425;28;20221;-51
2023/09/08 09:07:11;;;;;;;4.60;2.90;;;;;;;26.31;44.22;65770.88;5033591;28;20239;-51
2023/09/08 09:09:40;;;;;;;4.55;2.55;;;;;;;26.58;43.88;65806.59;5033418;28;20173;-53
2023/09/08 09:12:14;;;;;;;6.43;3.30;;;;;;;26.02;43.30;65741.78;5051368;28;20213;-53
2023/09/08 09:14:46;;;;;;;4.80;2.70;;;;;;;25.51;45.08;65685.69;5051322;28;20221;-52
2023/09/08 09:17:14;;;;;;;5.90;2.67;;;;;;;25.20;46.34;65653.88;5051387;28;20241;-50
2023/09/08 09:19:41;;;;;;;6.10;3.50;;;;;;;25.06;46.66;65638.31;5033537;28;20197;-51
2023/09/08 09:22:07;;;;;;;3.47;3.17;;;;;;;25.54;45.72;65688.47;5051438;28;20299;-50
2023/09/08 09:27:21;;;;;;;4.57;2.70;;;;;;;26.35;42.80;65777.88;5051935;28;20216;-55
2023/09/08 09:29:49;;;;;;;3.80;3.00;;;;;;;26.00;43.43;65741.59;5051016;28;20186;-51
2023/09/08 09:32:16;;;;;;;3.13;2.75;;;;;;;25.82;45.96;65716.44;5051350;28;20221;-52
2023/09/08 09:34:50;;;;;;;5.10;2.78;;;;;;;25.64;45.36;65702.72;5050925;28;20212;-55
2023/09/08 09:37:16;;;;;;;6.75;3.20;;;;;;;25.72;46.14;65711.03;5051282;28;20247;-51
2023/09/08 09:39:42;;;;;;;4.18;3.30;;;;;;;25.68;45.73;65707.16;5033054;28;20701;-52
2023/09/08 09:42:08;;;;;;;4.18;3.22;;;;;;;25.89;45.21;65729.94;5050973;28;20213;-50
2023/09/08 09:44:34;;;;;;;3.33;3.00;;;;;;;26.57;45.04;65802.34;5050806;28;20706;-51
2023/09/08 09:47:00;;;;;;;4.30;2.88;;;;;;;26.88;43.59;65838.84;5050587;28;20217;-52
2023/09/08 09:49:31;;;;;;;6.50;3.10;;;;;;;27.13;42.41;65867.16;5050677;28;20194;-51
2023/09/08 09:51:58;;;;;;;5.78;3.53;;;;;;;27.16;44.66;65867.94;5050499;28;20680;-50
2023/09/08 09:54:24;;;;;;;6.10;3.33;;;;;;;27.15;43.86;65868.84;5050316;28;20209;-50
2023/09/08 09:56:51;;;;;;;3.42;2.97;;;;;;;26.99;44.43;65851.06;5050662;28;20240;-50
2023/09/08 09:59:17;;;;;;;5.90;2.58;;;;;;;27.41;43.77;65892.59;5050502;28;20695;-51
2023/09/08 10:01:43;;;;;;;5.75;3.03;;;;;;;26.91;42.64;65842.72;5050617;28;20217;-50
2023/09/08 10:04:10;;;;;;;7.85;3.38;;;;;;;26.98;41.69;65849.94;5050536;28;20270;-51
2023/09/08 10:06:37;;;;;;;4.22;3.38;;;;;;;26.66;41.76;65811.78;5050255;28;20209;-58
2023/09/08 10:09:13;;;;;;;3.88;3.08;;;;;;;26.74;42.88;65818.09;5050374;28;20201;-50
2023/09/08 10:11:46;;;;;;;4.05;2.83;;;;;;;26.60;45.06;65805.69;5050654;28;20248;-51
2023/09/08 10:14:14;;;;;;;7.28;2.90;;;;;;;26.46;44.88;65790.66;5050158;28;20217;-51
2023/09/08 10:16:43;;;;;;;6.10;3.00;;;;;;;26.62;44.35;65807.91;5050629;28;20213;-51
2023/09/08 10:19:10;;;;;;;4.80;3.17;;;;;;;26.83;45.80;65833.28;5050194;28;20197;-51
2023/09/08 10:21:40;;;;;;;6.72;3.88;;;;;;;26.74;45.88;65821.25;5050258;28;20248;-51
2023/09/08 10:24:18;;;;;;;3.33;2.97;;;;;;;26.37;45.93;65780.69;5050346;28;20197;-53
2023/09/08 10:26:51;;;;;;;3.20;2.88;;;;;;;26.08;45.08;65751.03;5053622;28;20213;-51
2023/09/08 10:29:18;;;;;;;4.65;3.10;;;;;;;25.29;48.28;65661.25;5054057;28;20201;-52
2023/09/08 10:31:46;;;;;;;4.50;3.17;;;;;;;25.67;49.13;65700.88;5053765;28;20214;-52
2023/09/08 10:34:12;;;;;;;3.63;3.03;;;;;;;26.21;47.72;65764.94;5035756;28;20325;-51
2023/09/08 10:36:38;;;;;;;4.82;3.25;;;;;;;27.24;45.34;65876.81;5035925;28;20637;-51
2023/09/08 10:39:35;;;;;;;9.02;3.40;;;;;;;26.82;46.76;65830.13;5054062;28;20745;-50
2023/09/08 10:42:33;;;;;;;6.03;3.55;;;;;;;26.03;46.49;65742.34;5036095;28;20225;-51
2023/09/08 10:45:04;;;;;;;8.48;3.55;;;;;;;26.17;47.11;65757.91;5008739;28;20217;-58
2023/09/08 10:47:54;;;;;;;5.05;3.50;;;;;;;25.66;48.39;65701.78;5053573;28;20595;-51
2023/09/08 10:50:27;;;;;;;4.20;2.97;;;;;;;26.27;47.77;65769.00;5054001;28;20201;-57
2023/09/08 10:53:07;;;;;;;3.72;2.67;;;;;;;26.51;48.65;65793.06;5053217;28;20307;-52
2023/09/08 10:55:53;;;;;;;6.07;3.03;;;;;;;26.21;46.89;65762.34;5053358;28;20209;-51
2023/09/08 10:58:32;;;;;;;4.43;2.95;;;;;;;25.87;47.44;65727.72;5053448;28;20672;-50
2023/09/08 11:01:01;;;;;;;7.30;3.60;;;;;;;25.55;48.28;65692.19;5053336;28;20193;-55
2023/09/08 11:03:41;;;;;;;5.35;3.15;;;;;;;25.17;50.46;65649.97;5053311;28;20197;-49
2023/09/08 11:06:07;;;;;;;4.10;3.28;;;;;;;25.08;49.82;65640.00;5053409;28;20209;-52
2023/09/08 11:08:34;;;;;;;6.60;3.30;;;;;;;25.05;50.96;65637.22;5035513;28;20189;-52
2023/09/08 11:11:00;;;;;;;5.85;3.90;;;;;;;25.52;51.63;65691.41;5053148;28;20256;-51
2023/09/08 11:13:27;;;;;;;6.53;3.83;;;;;;;26.13;50.58;65753.47;5053403;28;20201;-50
2023/09/08 11:15:54;;;;;;;5.80;3.30;;;;;;;25.83;49.65;65722.72;5053237;28;20213;-51
2023/09/08 11:18:29;;;;;;;5.20;3.45;;;;;;;25.85;49.87;65722.91;5053179;28;20201;-51
2023/09/08 11:20:56;;;;;;;6.60;3.25;;;;;;;25.62;50.18;65697.34;5053006;28;20197;-54
2023/09/08 11:23:22;;;;;;;4.57;3.45;;;;;;;24.99;50.77;65630.56;5053056;28;20324;-51
2023/09/08 11:25:49;;;;;;;4.55;3.67;;;;;;;25.03;50.48;65634.44;5035095;28;20214;-50
2023/09/08 11:28:16;;;;;;;4.90;3.22;;;;;;;24.76;52.10;65603.03;5051600;28;20193;-51
2023/09/08 11:30:42;;;;;;;7.25;3.58;;;;;;;25.24;51.40;65655.16;5052887;28;20210;-50
2023/09/08 11:33:18;;;;;;;12.93;4.13;;;;;;;25.19;50.84;65652.19;5052604;28;20223;-60